sensor_id;sensor_type;location;lat;lon;timestamp;P1;durP1;ratioP1;P2;durP2;ratioP2
6519;SDS011;3293;51.690;5.982;2023-12-22T00:02:26;12.10;;;3.03;;
6519;SDS011;3293;51.690;5.982;2023-12-22T00:07:28;9.30;;;3.57;;
6519;SDS011;3293;51.690;5.982;2023-12-22T00:12:28;11.63;;;3.47;;
6519;SDS011;3293;51.690;5.982;2023-12-22T00:17:27;7.60;;;3.10;;
6519;SDS011;3293;51.690;5.982;2023-12-22T00:22:27;13.43;;;3.57;;
6519;SDS011;3293;51.690;5.982;2023-12-22T00:27:27;6.00;;;3.00;;
6519;SDS011;3293;51.690;5.982;2023-12-22T00:32:27;9.50;;;2.87;;
6519;SDS011;3293;51.690;5.982;2023-12-22T00:37:27;8.97;;;3.13;;
6519;SDS011;3293;51.690;5.982;2023-12-22T00:42:27;8.47;;;3.17;;
6519;SDS011;3293;51.690;5.982;2023-12-22T00:47:27;11.20;;;3.10;;
6519;SDS011;3293;51.690;5.982;2023-12-22T00:52:27;5.60;;;2.90;;
6519;SDS011;3293;51.690;5.982;2023-12-22T00:57:27;7.13;;;2.40;;
6519;SDS011;3293;51.690;5.982;2023-12-22T01:02:27;10.43;;;3.00;;
6519;SDS011;3293;51.690;5.982;2023-12-22T01:07:27;7.53;;;2.87;;
6519;SDS011;3293;51.690;5.982;2023-12-22T01:12:27;2.77;;;1.83;;
6519;SDS011;3293;51.690;5.982;2023-12-22T01:17:28;9.97;;;2.70;;
6519;SDS011;3293;51.690;5.982;2023-12-22T01:22:27;6.23;;;2.13;;
6519;SDS011;3293;51.690;5.982;2023-12-22T01:27:27;8.10;;;2.33;;
6519;SDS011;3293;51.690;5.982;2023-12-22T01:32:27;5.07;;;2.10;;
6519;SDS011;3293;51.690;5.982;2023-12-22T01:37:33;4.40;;;2.27;;
6519;SDS011;3293;51.690;5.982;2023-12-22T01:42:33;8.27;;;2.67;;
6519;SDS011;3293;51.690;5.982;2023-12-22T01:47:33;9.10;;;2.60;;
6519;SDS011;3293;51.690;5.982;2023-12-22T01:52:34;5.37;;;2.67;;
6519;SDS011;3293;51.690;5.982;2023-12-22T01:57:35;5.43;;;2.27;;
6519;SDS011;3293;51.690;5.982;2023-12-22T02:02:35;8.63;;;2.10;;
6519;SDS011;3293;51.690;5.982;2023-12-22T02:07:41;6.13;;;2.20;;
6519;SDS011;3293;51.690;5.982;2023-12-22T02:12:41;5.60;;;2.00;;
6519;SDS011;3293;51.690;5.982;2023-12-22T02:23:08;4.27;;;2.50;;
6519;SDS011;3293;51.690;5.982;2023-12-22T02:28:09;9.30;;;2.13;;
6519;SDS011;3293;51.690;5.982;2023-12-22T02:33:13;9.87;;;3.07;;
6519;SDS011;3293;51.690;5.982;2023-12-22T02:38:15;10.00;;;3.30;;
6519;SDS011;3293;51.690;5.982;2023-12-22T02:43:15;12.37;;;3.00;;
6519;SDS011;3293;51.690;5.982;2023-12-22T02:48:15;6.53;;;2.80;;
6519;SDS011;3293;51.690;5.982;2023-12-22T02:53:15;11.70;;;3.37;;
6519;SDS011;3293;51.690;5.982;2023-12-22T02:58:15;11.53;;;3.80;;
6519;SDS011;3293;51.690;5.982;2023-12-22T03:03:15;13.40;;;3.33;;
6519;SDS011;3293;51.690;5.982;2023-12-22T03:08:15;11.23;;;3.33;;
6519;SDS011;3293;51.690;5.982;2023-12-22T03:13:15;9.93;;;3.60;;
6519;SDS011;3293;51.690;5.982;2023-12-22T03:18:15;18.87;;;3.97;;
6519;SDS011;3293;51.690;5.982;2023-12-22T03:23:14;14.37;;;4.07;;
6519;SDS011;3293;51.690;5.982;2023-12-22T03:28:14;18.40;;;4.47;;
6519;SDS011;3293;51.690;5.982;2023-12-22T03:33:14;25.00;;;5.97;;
6519;SDS011;3293;51.690;5.982;2023-12-22T03:38:14;12.03;;;4.13;;
6519;SDS011;3293;51.690;5.982;2023-12-22T03:43:14;15.90;;;4.00;;
6519;SDS011;3293;51.690;5.982;2023-12-22T03:48:14;16.43;;;5.23;;
6519;SDS011;3293;51.690;5.982;2023-12-22T03:53:14;16.00;;;5.07;;
6519;SDS011;3293;51.690;5.982;2023-12-22T03:58:14;16.80;;;4.33;;
6519;SDS011;3293;51.690;5.982;2023-12-22T04:03:13;16.60;;;4.20;;
6519;SDS011;3293;51.690;5.982;2023-12-22T04:08:13;21.23;;;6.10;;
6519;SDS011;3293;51.690;5.982;2023-12-22T04:13:13;11.90;;;4.50;;
6519;SDS011;3293;51.690;5.982;2023-12-22T04:18:13;16.27;;;5.27;;
6519;SDS011;3293;51.690;5.982;2023-12-22T04:23:13;24.93;;;4.47;;
6519;SDS011;3293;51.690;5.982;2023-12-22T04:28:13;20.03;;;4.53;;
6519;SDS011;3293;51.690;5.982;2023-12-22T04:33:13;23.87;;;4.63;;
6519;SDS011;3293;51.690;5.982;2023-12-22T04:38:13;16.93;;;4.23;;
6519;SDS011;3293;51.690;5.982;2023-12-22T04:43:13;17.90;;;4.70;;
6519;SDS011;3293;51.690;5.982;2023-12-22T04:48:12;14.20;;;4.23;;
6519;SDS011;3293;51.690;5.982;2023-12-22T04:53:12;13.70;;;4.17;;
6519;SDS011;3293;51.690;5.982;2023-12-22T04:58:12;5.30;;;2.50;;
6519;SDS011;3293;51.690;5.982;2023-12-22T05:03:12;12.10;;;2.87;;
6519;SDS011;3293;51.690;5.982;2023-12-22T05:08:12;12.90;;;3.70;;
6519;SDS011;3293;51.690;5.982;2023-12-22T05:13:12;11.33;;;3.00;;
6519;SDS011;3293;51.690;5.982;2023-12-22T05:18:13;14.60;;;4.43;;
6519;SDS011;3293;51.690;5.982;2023-12-22T05:23:13;16.10;;;4.63;;
6519;SDS011;3293;51.690;5.982;2023-12-22T05:28:13;14.50;;;4.03;;
6519;SDS011;3293;51.690;5.982;2023-12-22T05:33:13;16.17;;;4.40;;
6519;SDS011;3293;51.690;5.982;2023-12-22T05:38:13;14.57;;;3.70;;
6519;SDS011;3293;51.690;5.982;2023-12-22T05:43:12;18.63;;;3.90;;
6519;SDS011;3293;51.690;5.982;2023-12-22T05:48:12;12.87;;;4.37;;
6519;SDS011;3293;51.690;5.982;2023-12-22T05:53:12;18.47;;;4.33;;
6519;SDS011;3293;51.690;5.982;2023-12-22T05:58:12;20.20;;;3.93;;
6519;SDS011;3293;51.690;5.982;2023-12-22T06:03:12;13.03;;;3.27;;
6519;SDS011;3293;51.690;5.982;2023-12-22T06:08:13;13.67;;;4.77;;
6519;SDS011;3293;51.690;5.982;2023-12-22T06:13:13;10.43;;;3.77;;
6519;SDS011;3293;51.690;5.982;2023-12-22T06:18:14;13.80;;;4.37;;
6519;SDS011;3293;51.690;5.982;2023-12-22T06:23:14;14.57;;;3.80;;
6519;SDS011;3293;51.690;5.982;2023-12-22T06:28:14;12.43;;;3.47;;
6519;SDS011;3293;51.690;5.982;2023-12-22T06:33:16;9.40;;;3.77;;
6519;SDS011;3293;51.690;5.982;2023-12-22T06:38:16;9.93;;;2.83;;
6519;SDS011;3293;51.690;5.982;2023-12-22T06:43:15;7.63;;;3.00;;
6519;SDS011;3293;51.690;5.982;2023-12-22T06:48:15;13.60;;;3.20;;
6519;SDS011;3293;51.690;5.982;2023-12-22T06:53:15;15.23;;;4.80;;
6519;SDS011;3293;51.690;5.982;2023-12-22T06:58:15;11.27;;;3.40;;
6519;SDS011;3293;51.690;5.982;2023-12-22T07:03:15;14.60;;;4.37;;
6519;SDS011;3293;51.690;5.982;2023-12-22T07:08:16;15.97;;;4.20;;
6519;SDS011;3293;51.690;5.982;2023-12-22T07:13:16;17.03;;;3.70;;
6519;SDS011;3293;51.690;5.982;2023-12-22T07:18:16;12.33;;;3.80;;
6519;SDS011;3293;51.690;5.982;2023-12-22T07:23:16;15.03;;;4.33;;
6519;SDS011;3293;51.690;5.982;2023-12-22T07:28:16;17.70;;;5.60;;
6519;SDS011;3293;51.690;5.982;2023-12-22T07:33:16;20.07;;;5.60;;
6519;SDS011;3293;51.690;5.982;2023-12-22T07:38:16;31.20;;;7.17;;
6519;SDS011;3293;51.690;5.982;2023-12-22T07:43:16;23.30;;;5.77;;
6519;SDS011;3293;51.690;5.982;2023-12-22T07:48:16;27.73;;;6.97;;
6519;SDS011;3293;51.690;5.982;2023-12-22T07:53:16;28.23;;;8.10;;
6519;SDS011;3293;51.690;5.982;2023-12-22T07:58:16;38.13;;;7.80;;
6519;SDS011;3293;51.690;5.982;2023-12-22T08:03:17;30.17;;;8.77;;
6519;SDS011;3293;51.690;5.982;2023-12-22T08:08:16;34.73;;;8.57;;
6519;SDS011;3293;51.690;5.982;2023-12-22T08:13:16;31.57;;;7.50;;
6519;SDS011;3293;51.690;5.982;2023-12-22T08:18:17;25.60;;;7.67;;
6519;SDS011;3293;51.690;5.982;2023-12-22T08:23:16;33.03;;;8.20;;
6519;SDS011;3293;51.690;5.982;2023-12-22T08:28:16;38.83;;;8.53;;
6519;SDS011;3293;51.690;5.982;2023-12-22T08:33:17;25.93;;;8.10;;
6519;SDS011;3293;51.690;5.982;2023-12-22T08:38:16;28.60;;;6.97;;
6519;SDS011;3293;51.690;5.982;2023-12-22T08:43:16;25.73;;;6.13;;
6519;SDS011;3293;51.690;5.982;2023-12-22T08:48:16;24.17;;;6.60;;
6519;SDS011;3293;51.690;5.982;2023-12-22T08:53:16;23.47;;;6.47;;
6519;SDS011;3293;51.690;5.982;2023-12-22T08:58:17;20.00;;;6.23;;
6519;SDS011;3293;51.690;5.982;2023-12-22T09:03:17;19.93;;;5.97;;
6519;SDS011;3293;51.690;5.982;2023-12-22T09:08:16;30.23;;;5.97;;
6519;SDS011;3293;51.690;5.982;2023-12-22T09:13:16;21.40;;;5.23;;
6519;SDS011;3293;51.690;5.982;2023-12-22T09:18:16;24.47;;;5.70;;
6519;SDS011;3293;51.690;5.982;2023-12-22T09:23:16;20.83;;;4.50;;
6519;SDS011;3293;51.690;5.982;2023-12-22T09:28:16;14.17;;;4.00;;
6519;SDS011;3293;51.690;5.982;2023-12-22T09:33:16;15.20;;;3.90;;
6519;SDS011;3293;51.690;5.982;2023-12-22T09:38:16;12.10;;;3.77;;
6519;SDS011;3293;51.690;5.982;2023-12-22T09:43:16;11.13;;;4.93;;
6519;SDS011;3293;51.690;5.982;2023-12-22T09:48:18;10.33;;;3.67;;
6519;SDS011;3293;51.690;5.982;2023-12-22T09:53:26;12.07;;;3.67;;
6519;SDS011;3293;51.690;5.982;2023-12-22T09:58:30;11.77;;;3.60;;
6519;SDS011;3293;51.690;5.982;2023-12-22T10:03:33;9.63;;;3.30;;
6519;SDS011;3293;51.690;5.982;2023-12-22T10:08:34;8.80;;;3.10;;
6519;SDS011;3293;51.690;5.982;2023-12-22T10:13:36;5.10;;;2.80;;
6519;SDS011;3293;51.690;5.982;2023-12-22T10:18:36;4.93;;;3.00;;
6519;SDS011;3293;51.690;5.982;2023-12-22T10:23:36;5.17;;;3.13;;
6519;SDS011;3293;51.690;5.982;2023-12-22T10:28:36;7.93;;;3.00;;
6519;SDS011;3293;51.690;5.982;2023-12-22T10:33:36;7.93;;;3.20;;
6519;SDS011;3293;51.690;5.982;2023-12-22T10:38:37;4.90;;;2.90;;
6519;SDS011;3293;51.690;5.982;2023-12-22T10:43:38;6.70;;;2.40;;
6519;SDS011;3293;51.690;5.982;2023-12-22T10:48:39;5.33;;;2.50;;
6519;SDS011;3293;51.690;5.982;2023-12-22T10:53:42;6.07;;;2.40;;
6519;SDS011;3293;51.690;5.982;2023-12-22T10:58:42;14.93;;;2.77;;
6519;SDS011;3293;51.690;5.982;2023-12-22T11:03:44;4.80;;;2.23;;
6519;SDS011;3293;51.690;5.982;2023-12-22T11:08:51;6.57;;;2.57;;
6519;SDS011;3293;51.690;5.982;2023-12-22T11:13:52;4.17;;;2.40;;
6519;SDS011;3293;51.690;5.982;2023-12-22T11:18:54;5.13;;;2.40;;
6519;SDS011;3293;51.690;5.982;2023-12-22T11:23:56;3.30;;;2.27;;
6519;SDS011;3293;51.690;5.982;2023-12-22T11:28:59;4.67;;;2.57;;
6519;SDS011;3293;51.690;5.982;2023-12-22T11:33:59;5.00;;;2.20;;
6519;SDS011;3293;51.690;5.982;2023-12-22T11:39:00;6.50;;;2.23;;
6519;SDS011;3293;51.690;5.982;2023-12-22T11:44:00;6.40;;;2.40;;
6519;SDS011;3293;51.690;5.982;2023-12-22T11:49:02;7.90;;;2.60;;
6519;SDS011;3293;51.690;5.982;2023-12-22T11:54:03;6.80;;;2.13;;
6519;SDS011;3293;51.690;5.982;2023-12-22T11:59:23;4.87;;;2.30;;
6519;SDS011;3293;51.690;5.982;2023-12-22T12:04:24;6.97;;;2.57;;
6519;SDS011;3293;51.690;5.982;2023-12-22T12:09:44;8.67;;;2.03;;
6519;SDS011;3293;51.690;5.982;2023-12-22T12:14:45;13.27;;;2.73;;
6519;SDS011;3293;51.690;5.982;2023-12-22T12:19:51;6.53;;;2.13;;
6519;SDS011;3293;51.690;5.982;2023-12-22T12:24:50;3.30;;;1.90;;
6519;SDS011;3293;51.690;5.982;2023-12-22T12:29:51;4.40;;;2.63;;
6519;SDS011;3293;51.690;5.982;2023-12-22T12:34:52;2.53;;;2.27;;
6519;SDS011;3293;51.690;5.982;2023-12-22T12:39:55;4.77;;;2.50;;
6519;SDS011;3293;51.690;5.982;2023-12-22T12:44:59;5.10;;;2.40;;
6519;SDS011;3293;51.690;5.982;2023-12-22T12:49:59;7.43;;;2.80;;
6519;SDS011;3293;51.690;5.982;2023-12-22T12:54:59;7.40;;;2.47;;
6519;SDS011;3293;51.690;5.982;2023-12-22T13:00:00;9.87;;;3.13;;
6519;SDS011;3293;51.690;5.982;2023-12-22T13:05:00;7.37;;;3.23;;
6519;SDS011;3293;51.690;5.982;2023-12-22T13:10:03;5.63;;;2.63;;
6519;SDS011;3293;51.690;5.982;2023-12-22T13:15:04;5.53;;;2.67;;
6519;SDS011;3293;51.690;5.982;2023-12-22T13:20:04;6.93;;;2.37;;
6519;SDS011;3293;51.690;5.982;2023-12-22T13:25:05;4.37;;;2.27;;
6519;SDS011;3293;51.690;5.982;2023-12-22T13:30:05;7.83;;;2.60;;
6519;SDS011;3293;51.690;5.982;2023-12-22T13:35:05;6.73;;;2.17;;
6519;SDS011;3293;51.690;5.982;2023-12-22T13:40:07;5.20;;;2.47;;
6519;SDS011;3293;51.690;5.982;2023-12-22T13:45:11;4.97;;;2.27;;
6519;SDS011;3293;51.690;5.982;2023-12-22T13:50:17;8.17;;;2.33;;
6519;SDS011;3293;51.690;5.982;2023-12-22T13:55:19;2.80;;;2.00;;
6519;SDS011;3293;51.690;5.982;2023-12-22T14:00:25;7.33;;;2.50;;
6519;SDS011;3293;51.690;5.982;2023-12-22T14:05:25;7.60;;;2.77;;
6519;SDS011;3293;51.690;5.982;2023-12-22T14:10:28;8.93;;;2.93;;
6519;SDS011;3293;51.690;5.982;2023-12-22T14:15:28;6.63;;;2.80;;
6519;SDS011;3293;51.690;5.982;2023-12-22T14:20:28;6.60;;;2.30;;
6519;SDS011;3293;51.690;5.982;2023-12-22T14:25:28;5.13;;;2.30;;
6519;SDS011;3293;51.690;5.982;2023-12-22T14:30:28;6.07;;;2.43;;
6519;SDS011;3293;51.690;5.982;2023-12-22T14:35:28;8.20;;;3.00;;
6519;SDS011;3293;51.690;5.982;2023-12-22T14:40:28;9.93;;;2.83;;
6519;SDS011;3293;51.690;5.982;2023-12-22T14:45:28;7.97;;;2.57;;
6519;SDS011;3293;51.690;5.982;2023-12-22T14:50:28;8.93;;;3.10;;
6519;SDS011;3293;51.690;5.982;2023-12-22T14:55:27;11.80;;;2.83;;
6519;SDS011;3293;51.690;5.982;2023-12-22T15:00:27;9.23;;;2.87;;
6519;SDS011;3293;51.690;5.982;2023-12-22T15:05:27;11.00;;;3.00;;
6519;SDS011;3293;51.690;5.982;2023-12-22T15:10:29;13.37;;;3.20;;
6519;SDS011;3293;51.690;5.982;2023-12-22T15:15:28;12.37;;;2.87;;
6519;SDS011;3293;51.690;5.982;2023-12-22T15:20:28;7.13;;;3.20;;
6519;SDS011;3293;51.690;5.982;2023-12-22T15:25:28;7.97;;;2.90;;
6519;SDS011;3293;51.690;5.982;2023-12-22T15:30:28;9.73;;;3.47;;
6519;SDS011;3293;51.690;5.982;2023-12-22T15:35:29;12.57;;;3.93;;
6519;SDS011;3293;51.690;5.982;2023-12-22T15:40:29;13.87;;;2.93;;
6519;SDS011;3293;51.690;5.982;2023-12-22T15:45:29;6.37;;;2.47;;
6519;SDS011;3293;51.690;5.982;2023-12-22T15:50:30;7.23;;;2.70;;
6519;SDS011;3293;51.690;5.982;2023-12-22T15:55:30;8.30;;;2.73;;
6519;SDS011;3293;51.690;5.982;2023-12-22T16:00:30;14.57;;;3.17;;
6519;SDS011;3293;51.690;5.982;2023-12-22T16:05:30;7.53;;;3.47;;
6519;SDS011;3293;51.690;5.982;2023-12-22T16:10:30;14.97;;;2.83;;
6519;SDS011;3293;51.690;5.982;2023-12-22T16:15:29;11.13;;;3.57;;
6519;SDS011;3293;51.690;5.982;2023-12-22T16:20:29;10.33;;;3.20;;
6519;SDS011;3293;51.690;5.982;2023-12-22T16:25:33;9.77;;;3.30;;
6519;SDS011;3293;51.690;5.982;2023-12-22T16:30:33;11.03;;;2.90;;
6519;SDS011;3293;51.690;5.982;2023-12-22T16:35:32;11.40;;;3.17;;
6519;SDS011;3293;51.690;5.982;2023-12-22T16:40:32;11.50;;;3.67;;
6519;SDS011;3293;51.690;5.982;2023-12-22T16:45:32;7.43;;;3.10;;
6519;SDS011;3293;51.690;5.982;2023-12-22T16:50:32;11.57;;;3.20;;
6519;SDS011;3293;51.690;5.982;2023-12-22T16:55:32;7.07;;;3.30;;
6519;SDS011;3293;51.690;5.982;2023-12-22T17:00:32;11.27;;;4.10;;
6519;SDS011;3293;51.690;5.982;2023-12-22T17:05:32;9.33;;;2.73;;
6519;SDS011;3293;51.690;5.982;2023-12-22T17:10:31;13.57;;;3.57;;
6519;SDS011;3293;51.690;5.982;2023-12-22T17:15:31;6.40;;;2.77;;
6519;SDS011;3293;51.690;5.982;2023-12-22T17:20:31;7.03;;;3.17;;
6519;SDS011;3293;51.690;5.982;2023-12-22T17:25:31;14.73;;;4.23;;
6519;SDS011;3293;51.690;5.982;2023-12-22T17:30:31;10.17;;;3.80;;
6519;SDS011;3293;51.690;5.982;2023-12-22T17:35:31;9.43;;;3.90;;
6519;SDS011;3293;51.690;5.982;2023-12-22T17:40:31;11.77;;;2.80;;
6519;SDS011;3293;51.690;5.982;2023-12-22T17:45:31;9.00;;;3.07;;
6519;SDS011;3293;51.690;5.982;2023-12-22T17:50:31;8.10;;;2.73;;
6519;SDS011;3293;51.690;5.982;2023-12-22T17:55:31;6.93;;;2.30;;
6519;SDS011;3293;51.690;5.982;2023-12-22T18:00:31;8.67;;;2.17;;
6519;SDS011;3293;51.690;5.982;2023-12-22T18:05:31;6.17;;;2.97;;
6519;SDS011;3293;51.690;5.982;2023-12-22T18:10:31;7.90;;;2.80;;
6519;SDS011;3293;51.690;5.982;2023-12-22T18:15:31;10.80;;;2.87;;
6519;SDS011;3293;51.690;5.982;2023-12-22T18:20:31;8.20;;;2.60;;
6519;SDS011;3293;51.690;5.982;2023-12-22T18:25:31;9.53;;;3.10;;
6519;SDS011;3293;51.690;5.982;2023-12-22T18:30:31;7.67;;;2.87;;
6519;SDS011;3293;51.690;5.982;2023-12-22T18:35:31;11.33;;;3.00;;
6519;SDS011;3293;51.690;5.982;2023-12-22T18:40:30;5.97;;;2.67;;
6519;SDS011;3293;51.690;5.982;2023-12-22T18:45:30;8.13;;;3.03;;
6519;SDS011;3293;51.690;5.982;2023-12-22T18:50:30;10.17;;;3.43;;
6519;SDS011;3293;51.690;5.982;2023-12-22T18:55:30;7.97;;;3.37;;
6519;SDS011;3293;51.690;5.982;2023-12-22T19:00:30;11.53;;;3.27;;
6519;SDS011;3293;51.690;5.982;2023-12-22T19:05:30;6.43;;;2.70;;
6519;SDS011;3293;51.690;5.982;2023-12-22T19:10:30;15.20;;;4.20;;
6519;SDS011;3293;51.690;5.982;2023-12-22T19:15:30;6.87;;;3.07;;
6519;SDS011;3293;51.690;5.982;2023-12-22T19:20:30;8.93;;;3.27;;
6519;SDS011;3293;51.690;5.982;2023-12-22T19:25:30;12.57;;;3.60;;
6519;SDS011;3293;51.690;5.982;2023-12-22T19:30:30;6.90;;;3.30;;
6519;SDS011;3293;51.690;5.982;2023-12-22T19:35:30;9.73;;;3.07;;
6519;SDS011;3293;51.690;5.982;2023-12-22T19:40:30;9.77;;;3.30;;
6519;SDS011;3293;51.690;5.982;2023-12-22T19:45:30;8.93;;;3.70;;
6519;SDS011;3293;51.690;5.982;2023-12-22T19:50:32;9.43;;;3.03;;
6519;SDS011;3293;51.690;5.982;2023-12-22T19:55:32;7.30;;;3.67;;
6519;SDS011;3293;51.690;5.982;2023-12-22T20:00:32;11.50;;;3.23;;
6519;SDS011;3293;51.690;5.982;2023-12-22T20:05:32;13.30;;;3.73;;
6519;SDS011;3293;51.690;5.982;2023-12-22T20:10:32;6.03;;;2.10;;
6519;SDS011;3293;51.690;5.982;2023-12-22T20:15:32;5.77;;;2.40;;
6519;SDS011;3293;51.690;5.982;2023-12-22T20:20:32;3.27;;;1.80;;
6519;SDS011;3293;51.690;5.982;2023-12-22T20:25:32;3.80;;;2.10;;
6519;SDS011;3293;51.690;5.982;2023-12-22T20:30:32;5.53;;;2.00;;
6519;SDS011;3293;51.690;5.982;2023-12-22T20:35:32;2.80;;;1.67;;
6519;SDS011;3293;51.690;5.982;2023-12-22T20:40:32;2.37;;;1.63;;
6519;SDS011;3293;51.690;5.982;2023-12-22T20:45:32;4.27;;;1.90;;
6519;SDS011;3293;51.690;5.982;2023-12-22T20:50:32;3.03;;;1.80;;
6519;SDS011;3293;51.690;5.982;2023-12-22T20:55:32;5.00;;;2.10;;
6519;SDS011;3293;51.690;5.982;2023-12-22T21:00:32;5.13;;;1.90;;
6519;SDS011;3293;51.690;5.982;2023-12-22T21:05:33;5.00;;;2.27;;
6519;SDS011;3293;51.690;5.982;2023-12-22T21:10:33;6.53;;;2.17;;
6519;SDS011;3293;51.690;5.982;2023-12-22T21:15:35;6.73;;;2.53;;
6519;SDS011;3293;51.690;5.982;2023-12-22T21:20:36;8.37;;;2.30;;
6519;SDS011;3293;51.690;5.982;2023-12-22T21:25:36;4.70;;;2.30;;
6519;SDS011;3293;51.690;5.982;2023-12-22T21:30:36;6.47;;;2.17;;
6519;SDS011;3293;51.690;5.982;2023-12-22T21:35:36;7.43;;;2.87;;
6519;SDS011;3293;51.690;5.982;2023-12-22T21:40:36;6.97;;;3.20;;
6519;SDS011;3293;51.690;5.982;2023-12-22T21:45:36;5.50;;;2.53;;
6519;SDS011;3293;51.690;5.982;2023-12-22T21:50:36;5.53;;;2.30;;
6519;SDS011;3293;51.690;5.982;2023-12-22T21:55:36;4.10;;;2.37;;
6519;SDS011;3293;51.690;5.982;2023-12-22T22:00:36;6.70;;;2.00;;
6519;SDS011;3293;51.690;5.982;2023-12-22T22:05:37;9.20;;;2.60;;
6519;SDS011;3293;51.690;5.982;2023-12-22T22:10:36;8.07;;;2.70;;
6519;SDS011;3293;51.690;5.982;2023-12-22T22:15:36;12.43;;;2.63;;
6519;SDS011;3293;51.690;5.982;2023-12-22T22:20:36;7.37;;;2.80;;
6519;SDS011;3293;51.690;5.982;2023-12-22T22:25:36;11.67;;;3.00;;
6519;SDS011;3293;51.690;5.982;2023-12-22T22:30:36;6.97;;;2.70;;
6519;SDS011;3293;51.690;5.982;2023-12-22T22:35:36;6.83;;;2.40;;
6519;SDS011;3293;51.690;5.982;2023-12-22T22:40:36;8.87;;;2.80;;
6519;SDS011;3293;51.690;5.982;2023-12-22T22:45:36;9.17;;;2.67;;
6519;SDS011;3293;51.690;5.982;2023-12-22T22:50:36;10.87;;;2.87;;
6519;SDS011;3293;51.690;5.982;2023-12-22T22:55:36;9.13;;;2.80;;
6519;SDS011;3293;51.690;5.982;2023-12-22T23:00:36;6.63;;;2.13;;
6519;SDS011;3293;51.690;5.982;2023-12-22T23:05:36;11.77;;;2.50;;
6519;SDS011;3293;51.690;5.982;2023-12-22T23:10:37;11.67;;;2.73;;
6519;SDS011;3293;51.690;5.982;2023-12-22T23:15:37;11.33;;;2.67;;
6519;SDS011;3293;51.690;5.982;2023-12-22T23:20:37;8.10;;;3.20;;
6519;SDS011;3293;51.690;5.982;2023-12-22T23:25:37;13.23;;;3.33;;
6519;SDS011;3293;51.690;5.982;2023-12-22T23:30:37;9.50;;;2.87;;
6519;SDS011;3293;51.690;5.982;2023-12-22T23:35:37;12.10;;;3.07;;
6519;SDS011;3293;51.690;5.982;2023-12-22T23:40:38;6.93;;;2.50;;
6519;SDS011;3293;51.690;5.982;2023-12-22T23:45:38;6.57;;;2.30;;
6519;SDS011;3293;51.690;5.982;2023-12-22T23:50:37;9.03;;;3.00;;
6519;SDS011;3293;51.690;5.982;2023-12-22T23:55:37;8.50;;;2.33;;
